createdAt,value
2023-03-23T15:58:13.595Z,13.65
2023-03-23T16:00:59.346Z,13.34
2023-03-23T16:03:45.116Z,13.31
2023-03-23T16:06:32.035Z,13.29
2023-03-23T16:09:17.670Z,13.37
2023-03-23T16:12:01.764Z,13.10
2023-03-23T16:14:47.124Z,13.28
2023-03-23T16:17:31.141Z,13.04
2023-03-23T16:20:16.966Z,13.05
2023-03-23T16:23:01.542Z,12.89
2023-03-23T16:25:45.686Z,12.32
2023-03-23T16:28:29.650Z,12.79
2023-03-23T16:31:15.146Z,12.78
2023-03-23T16:33:59.058Z,12.32
2023-03-23T16:36:43.081Z,11.58
2023-03-23T16:39:27.051Z,12.25
2023-03-23T16:42:11.273Z,11.98
2023-03-23T16:44:55.244Z,11.62
2023-03-23T16:47:41.144Z,11.61
2023-03-23T16:50:25.191Z,11.73
2023-03-23T16:53:10.374Z,11.54
2023-03-23T16:55:54.766Z,11.42
2023-03-23T16:58:42.787Z,11.18
2023-03-23T17:01:26.684Z,11.51
2023-03-23T17:04:12.189Z,11.49
2023-03-23T17:06:56.415Z,11.65
2023-03-23T17:09:42.643Z,10.98
2023-03-23T17:12:27.372Z,10.98
2023-03-23T17:15:12.782Z,10.85
2023-03-23T17:17:56.752Z,10.80
2023-03-23T17:20:43.624Z,10.22
2023-03-23T17:23:27.799Z,9.91
2023-03-23T17:26:11.790Z,9.82
2023-03-23T17:28:55.858Z,9.74
2023-03-23T17:31:41.401Z,9.47
2023-03-23T17:34:25.605Z,9.47
2023-03-23T17:37:11.812Z,9.51
2023-03-23T17:39:55.696Z,9.25
2023-03-23T17:42:39.903Z,9.63
2023-03-23T17:45:24.024Z,9.58
2023-03-23T17:48:08.736Z,9.36
2023-03-23T17:50:57.737Z,9.18
2023-03-23T17:53:43.377Z,9.20
2023-03-23T17:56:27.544Z,9.05
2023-03-23T17:59:12.517Z,8.72
2023-03-23T18:01:56.800Z,8.72
2023-03-23T18:04:41.012Z,8.33
2023-03-23T18:07:25.057Z,8.51
2023-03-23T18:10:13.144Z,8.62
2023-03-23T18:12:57.415Z,8.47
2023-03-23T18:15:46.926Z,8.02
2023-03-23T18:18:31.487Z,8.63
2023-03-23T18:21:15.582Z,8.55
2023-03-23T18:24:00.250Z,8.50
2023-03-23T18:26:45.841Z,8.53
2023-03-23T18:29:29.923Z,8.45
2023-03-23T18:32:14.090Z,8.65
2023-03-23T18:34:58.297Z,8.52
2023-03-23T18:37:43.706Z,8.70
2023-03-23T18:40:27.833Z,8.60
2023-03-23T18:43:14.131Z,8.50
2023-03-23T18:46:00.036Z,8.45
2023-03-23T18:48:44.319Z,8.50
2023-03-23T18:51:28.511Z,8.38
2023-03-23T18:54:13.578Z,8.17
2023-03-23T18:57:00.230Z,8.41
2023-03-23T18:59:46.481Z,8.51
2023-03-23T19:02:30.519Z,8.53
2023-03-23T19:05:14.551Z,8.17
2023-03-23T19:07:58.593Z,8.23
2023-03-23T19:10:44.346Z,8.23
2023-03-23T19:13:29.063Z,8.42
2023-03-23T19:16:14.956Z,8.53
2023-03-23T19:18:59.104Z,8.20
2023-03-23T19:21:46.907Z,8.43
2023-03-23T19:24:31.432Z,8.27
2023-03-23T19:27:15.554Z,8.08
2023-03-23T19:30:00.737Z,8.02
2023-03-23T19:32:46.761Z,8.14
2023-03-23T19:35:32.268Z,7.78
2023-03-23T19:38:16.190Z,7.98
2023-03-23T19:41:03.843Z,7.85
2023-03-23T19:43:49.506Z,8.12
2023-03-23T19:46:33.621Z,7.90
2023-03-23T19:49:19.883Z,7.95
2023-03-23T19:52:06.466Z,8.15
2023-03-23T19:54:54.936Z,8.03
2023-03-23T19:57:39.647Z,7.91
2023-03-23T20:00:25.023Z,7.94
2023-03-23T20:03:09.689Z,7.96
2023-03-23T20:06:01.536Z,8.07
2023-03-23T20:08:47.900Z,8.16
2023-03-23T20:11:32.337Z,8.11
2023-03-23T20:14:17.769Z,8.01
2023-03-23T20:17:01.979Z,7.83
2023-03-23T20:19:46.217Z,7.49
2023-03-23T20:22:31.713Z,7.24
2023-03-23T20:25:15.802Z,7.46
2023-03-23T20:28:00.371Z,7.78
2023-03-23T20:30:44.614Z,7.59
2023-03-23T20:33:30.720Z,7.73
2023-03-23T20:36:15.096Z,7.75
2023-03-23T20:39:01.378Z,7.92
2023-03-23T20:41:47.801Z,7.60
2023-03-23T20:44:35.200Z,7.63
2023-03-23T20:47:19.383Z,7.72
2023-03-23T20:50:05.386Z,7.52
2023-03-23T20:52:50.118Z,7.45
2023-03-23T20:55:35.588Z,7.12
2023-03-23T20:58:21.319Z,7.50
2023-03-23T21:01:07.162Z,7.54
2023-03-23T21:03:54.280Z,7.40
2023-03-23T21:06:38.387Z,7.28
2023-03-23T21:09:23.201Z,7.32
2023-03-23T21:12:09.702Z,7.39
2023-03-23T21:14:53.616Z,7.41
2023-03-23T21:17:37.558Z,7.28
2023-03-23T21:20:21.691Z,7.22
2023-03-23T21:23:06.387Z,7.22
2023-03-23T21:25:51.053Z,7.30
2023-03-23T21:28:36.933Z,7.46
2023-03-23T21:31:23.430Z,7.41
2023-03-23T21:34:07.559Z,7.26
2023-03-23T21:36:51.601Z,7.20
2023-03-23T21:39:35.763Z,7.41
2023-03-23T21:42:19.805Z,6.95
2023-03-23T21:45:06.205Z,7.31
2023-03-23T21:47:57.220Z,7.37
2023-03-23T21:50:42.984Z,7.21
2023-03-23T21:53:28.192Z,7.21
2023-03-23T21:56:13.020Z,7.28
2023-03-23T21:58:57.890Z,7.07
2023-03-23T22:01:43.325Z,7.23
2023-03-23T22:04:28.142Z,7.36
2023-03-23T22:07:13.794Z,7.24
2023-03-23T22:09:57.917Z,7.02
2023-03-23T22:12:42.608Z,6.97
2023-03-23T22:15:28.252Z,7.22
2023-03-23T22:18:13.867Z,7.46
2023-03-23T22:20:59.176Z,7.04
2023-03-23T22:23:43.930Z,6.97
2023-03-23T22:26:29.572Z,6.92
2023-03-23T22:29:16.989Z,6.97
2023-03-23T22:32:01.207Z,7.03
2023-03-23T22:34:47.467Z,7.16
2023-03-23T22:37:31.743Z,7.19
2023-03-23T22:40:15.911Z,7.18
2023-03-23T22:43:00.114Z,7.19
2023-03-23T22:45:44.212Z,6.91
2023-03-23T22:48:29.277Z,7.04
2023-03-23T22:51:16.539Z,6.84
2023-03-23T22:54:00.757Z,6.59
2023-03-23T22:56:44.766Z,6.76
2023-03-23T22:59:28.865Z,6.98
2023-03-23T23:02:12.871Z,6.68
2023-03-23T23:04:57.952Z,7.12
2023-03-23T23:07:43.294Z,7.21
2023-03-23T23:10:27.450Z,6.93
2023-03-23T23:13:13.200Z,7.06
2023-03-23T23:15:59.085Z,7.08
2023-03-23T23:18:43.249Z,6.73
2023-03-23T23:21:29.220Z,6.97
2023-03-23T23:24:14.898Z,6.93
2023-03-23T23:26:59.166Z,6.95
2023-03-23T23:29:43.292Z,6.69
2023-03-23T23:32:29.253Z,7.04
2023-03-23T23:35:14.423Z,6.83
2023-03-23T23:37:58.523Z,6.98
2023-03-23T23:40:46.269Z,6.87
2023-03-23T23:43:30.605Z,6.98
2023-03-23T23:46:14.735Z,7.07
2023-03-23T23:48:59.261Z,6.95
2023-03-23T23:51:44.820Z,6.93
2023-03-23T23:54:30.951Z,6.86
2023-03-23T23:57:16.929Z,6.54
